Time;durP1;ratioP1;P1;durP2;ratioP2;P2;SDS_P1;SDS_P2;PMS_P1;PMS_P2;Temp;Humidity;BMP_temperature;BMP_pressure;BME280_temperature;BME280_humidity;BME280_pressure;Samples;Min_cycle;Max_cycle;Signal;HPM_P1;HPM_P2
2022/03/14 00:00:10;;;;;;;13.93;8.63;;;;;;;3.19;53.01;101588.69;5028956;28;20436;-20
2022/03/14 00:02:36;;;;;;;14.50;8.45;;;;;;;3.31;52.39;101585.94;5011298;28;20468;-21
2022/03/14 00:05:05;;;;;;;14.02;7.70;;;;;;;3.32;51.66;101582.38;5028236;28;20025;-21
2022/03/14 00:07:34;;;;;;;14.88;7.65;;;;;;;3.49;51.01;101584.34;5010431;28;20107;-21
2022/03/14 00:10:01;;;;;;;14.10;7.78;;;;;;;3.72;50.08;101595.50;5025993;28;20039;-20
2022/03/14 00:12:28;;;;;;;14.85;9.07;;;;;;;3.93;50.67;101602.47;5028222;28;20029;-21
2022/03/14 00:14:54;;;;;;;15.02;8.35;;;;;;;3.53;51.70;101596.28;5028093;28;20220;-21
2022/03/14 00:17:20;;;;;;;15.38;8.90;;;;;;;3.15;52.79;101600.47;5028443;28;20036;-22
2022/03/14 00:19:46;;;;;;;15.90;8.60;;;;;;;3.13;53.82;101593.69;5010762;28;20120;-21
2022/03/14 00:22:13;;;;;;;15.23;9.15;;;;;;;3.33;52.35;101605.09;5028202;28;20079;-21
2022/03/14 00:24:38;;;;;;;16.52;9.70;;;;;;;3.42;52.78;101599.03;5029048;28;20109;-21
2022/03/14 00:27:05;;;;;;;20.52;10.88;;;;;;;3.53;52.00;101611.28;5028234;28;20444;-21
2022/03/14 00:29:30;;;;;;;20.45;11.32;;;;;;;3.68;51.94;101609.09;5028260;28;20018;-21
2022/03/14 00:31:56;;;;;;;19.15;10.77;;;;;;;3.53;51.12;101604.19;5010700;28;20044;-20
2022/03/14 00:34:21;;;;;;;16.63;9.68;;;;;;;3.26;52.58;101606.63;5010624;28;20605;-20
2022/03/14 00:36:47;;;;;;;20.25;10.52;;;;;;;3.29;52.73;101598.44;5028214;28;20582;-21
2022/03/14 00:39:12;;;;;;;17.83;10.13;;;;;;;3.50;51.25;101601.84;5028264;28;20047;-20
2022/03/14 00:41:37;;;;;;;17.67;9.77;;;;;;;3.60;52.20;101607.97;5028246;28;20029;-21
2022/03/14 00:44:03;;;;;;;16.48;9.40;;;;;;;3.45;51.76;101606.69;5028596;28;20032;-20
2022/03/14 00:46:29;;;;;;;17.45;10.25;;;;;;;3.61;52.64;101614.91;5028402;28;20172;-21
2022/03/14 00:48:55;;;;;;;16.45;10.13;;;;;;;3.59;52.08;101611.56;5010158;28;20074;-21
2022/03/14 00:51:21;;;;;;;17.05;10.32;;;;;;;3.47;51.56;101596.00;5010390;28;20032;-20
2022/03/14 00:53:47;;;;;;;16.83;10.07;;;;;;;3.65;51.11;101617.28;5010233;28;20025;-22
2022/03/14 00:56:13;;;;;;;15.88;10.20;;;;;;;3.45;50.32;101614.59;5028064;28;20049;-20
2022/03/14 00:58:39;;;;;;;17.90;9.65;;;;;;;3.56;50.54;101611.03;5028105;28;20489;-21
2022/03/14 01:01:05;;;;;;;20.10;10.85;;;;;;;3.43;51.88;101595.44;5027794;28;20038;-20
2022/03/14 01:03:31;;;;;;;17.30;9.80;;;;;;;3.31;51.15;101614.97;5026863;28;20075;-21
2022/03/14 01:05:57;;;;;;;16.83;10.20;;;;;;;3.13;51.83;101597.16;5027631;28;20064;-21
2022/03/14 01:08:23;;;;;;;17.85;9.90;;;;;;;3.04;52.20;101584.75;5028016;28;20057;-21
2022/03/14 01:10:48;;;;;;;17.80;9.80;;;;;;;3.33;52.11;101618.28;5027959;28;20064;-21
2022/03/14 01:13:14;;;;;;;17.35;10.35;;;;;;;3.15;52.24;101608.38;5027398;28;20081;-20
2022/03/14 01:15:40;;;;;;;20.25;11.70;;;;;;;3.16;51.96;101610.03;5028239;28;20037;-21
2022/03/14 01:18:05;;;;;;;18.00;10.23;;;;;;;2.65;53.11;101631.13;5028235;28;20069;-21
2022/03/14 01:20:33;;;;;;;14.43;8.88;;;;;;;2.23;54.20;101637.22;5028035;28;20404;-21
2022/03/14 01:22:58;;;;;;;15.18;8.02;;;;;;;1.86;55.85;101629.66;5027788;28;20033;-20
2022/03/14 01:25:24;;;;;;;13.95;8.32;;;;;;;2.00;56.22;101637.28;5027924;28;20044;-21
2022/03/14 01:27:50;;;;;;;13.30;8.52;;;;;;;2.01;55.51;101615.25;5009849;28;20068;-20
2022/03/14 01:30:17;;;;;;;16.60;10.50;;;;;;;1.74;56.11;101610.44;5028092;28;20033;-21
2022/03/14 01:32:43;;;;;;;16.15;9.35;;;;;;;1.88;56.38;101633.00;5027794;28;20029;-21
2022/03/14 01:35:08;;;;;;;15.65;9.18;;;;;;;1.79;56.03;101620.59;5009791;28;20160;-21
2022/03/14 01:37:34;;;;;;;15.98;9.23;;;;;;;1.86;55.73;101619.16;5027399;28;20030;-21
2022/03/14 01:39:59;;;;;;;15.57;8.48;;;;;;;2.05;56.04;101633.44;5027608;28;20033;-21
2022/03/14 01:42:25;;;;;;;13.10;7.55;;;;;;;2.41;55.87;101648.00;5026268;28;20104;-20
2022/03/14 01:44:50;;;;;;;12.23;7.45;;;;;;;2.21;56.78;101633.88;5009731;28;20037;-20
2022/03/14 01:47:16;;;;;;;15.55;8.32;;;;;;;2.17;57.37;101642.97;5009934;28;20033;-21
2022/03/14 01:49:43;;;;;;;20.13;8.45;;;;;;;2.36;56.78;101656.28;5028023;28;20030;-21
2022/03/14 01:52:09;;;;;;;17.75;9.63;;;;;;;2.36;56.71;101653.66;5009624;28;20032;-21
2022/03/14 01:54:36;;;;;;;13.68;8.13;;;;;;;2.48;56.49;101645.72;5027325;28;20445;-21
2022/03/14 01:57:01;;;;;;;14.00;8.10;;;;;;;2.32;56.65;101662.75;5027177;28;20025;-20
2022/03/14 01:59:29;;;;;;;19.65;8.27;;;;;;;2.36;56.19;101645.75;5027578;28;20026;-21
2022/03/14 02:01:56;;;;;;;18.83;9.20;;;;;;;2.14;56.85;101648.47;5027286;28;20025;-20
2022/03/14 02:04:22;;;;;;;16.50;7.90;;;;;;;2.30;57.30;101654.16;5027390;28;20029;-21
2022/03/14 02:06:49;;;;;;;15.38;8.45;;;;;;;2.45;56.79;101662.59;5027173;28;20506;-21
2022/03/14 02:09:15;;;;;;;14.77;8.40;;;;;;;2.25;57.77;101655.47;5009247;28;20033;-21
2022/03/14 02:11:56;;;;;;;15.45;8.15;;;;;;;2.30;57.57;101648.88;5009505;28;20033;-20
2022/03/14 02:14:22;;;;;;;15.77;8.60;;;;;;;2.54;57.12;101666.28;5027133;28;20096;-21
2022/03/14 02:16:49;;;;;;;14.77;7.82;;;;;;;2.61;56.34;101672.69;5009513;28;20108;-21
2022/03/14 02:19:16;;;;;;;16.10;8.68;;;;;;;2.80;55.89;101686.00;5013004;28;20554;-21
2022/03/14 02:21:41;;;;;;;18.42;9.00;;;;;;;2.44;56.91;101666.19;5030366;28;20026;-21
2022/03/14 02:24:07;;;;;;;17.35;9.15;;;;;;;2.52;57.67;101678.72;5030527;28;20029;-21
2022/03/14 02:26:39;;;;;;;15.40;8.57;;;;;;;2.70;57.18;101695.66;5030593;28;20425;-21
2022/03/14 02:29:05;;;;;;;16.80;9.73;;;;;;;2.42;57.88;101691.81;5029105;28;20041;-21
2022/03/14 02:31:30;;;;;;;17.33;9.45;;;;;;;2.46;58.13;101679.25;5029101;28;20421;-20
2022/03/14 02:33:56;;;;;;;17.00;9.23;;;;;;;2.56;58.33;101690.69;5030574;28;20041;-21
2022/03/14 02:36:21;;;;;;;16.30;8.65;;;;;;;2.48;58.11;101685.22;5030137;28;20029;-21
2022/03/14 02:38:47;;;;;;;16.30;8.48;;;;;;;2.43;57.97;101690.84;5030259;28;20110;-20
2022/03/14 02:41:12;;;;;;;17.45;10.15;;;;;;;2.64;58.12;101682.16;5030563;28;20025;-20
2022/03/14 02:43:37;;;;;;;18.67;9.82;;;;;;;2.50;57.79;101680.66;5030376;28;20083;-20
2022/03/14 02:46:03;;;;;;;16.50;9.60;;;;;;;2.59;57.76;101695.69;5030594;28;20036;-21
2022/03/14 02:48:30;;;;;;;18.33;10.02;;;;;;;2.41;57.96;101693.63;5030115;28;20037;-20
2022/03/14 02:50:56;;;;;;;19.88;10.45;;;;;;;2.14;59.13;101703.75;5029836;28;20071;-21
2022/03/14 02:53:21;;;;;;;18.63;10.13;;;;;;;2.26;59.71;101697.47;5012372;28;20045;-20
2022/03/14 02:55:47;;;;;;;23.58;11.63;;;;;;;2.22;59.34;101710.06;5030241;28;20055;-21
2022/03/14 02:58:12;;;;;;;26.25;13.10;;;;;;;2.08;59.62;101697.16;5029933;28;20079;-20
2022/03/14 03:00:38;;;;;;;23.83;12.15;;;;;;;2.20;59.76;101721.66;5030176;28;20036;-22
2022/03/14 03:03:06;;;;;;;24.13;12.05;;;;;;;2.07;60.46;101726.25;5011829;28;20128;-21
2022/03/14 03:05:33;;;;;;;23.42;12.07;;;;;;;1.63;62.39;101722.69;5029657;28;20030;-21
2022/03/14 03:08:04;;;;;;;22.02;12.32;;;;;;;1.72;62.52;101716.72;5030157;28;20041;-20
2022/03/14 03:10:31;;;;;;;26.10;13.40;;;;;;;1.83;61.94;101719.34;5029812;28;20034;-21
2022/03/14 03:12:56;;;;;;;21.50;11.70;;;;;;;1.69;62.36;101727.47;5029468;28;20042;-27
2022/03/14 03:15:25;;;;;;;20.40;11.48;;;;;;;1.79;61.43;101717.91;5011942;28;20022;-20
2022/03/14 03:17:51;;;;;;;20.20;10.90;;;;;;;1.81;61.69;101737.03;5029634;28;20037;-20
2022/03/14 03:20:17;;;;;;;18.92;11.07;;;;;;;1.93;61.75;101736.06;5011210;28;20025;-21
2022/03/14 03:22:42;;;;;;;22.02;11.55;;;;;;;1.76;61.44;101736.59;5011755;28;20033;-21
2022/03/14 03:25:08;;;;;;;20.20;10.55;;;;;;;1.88;60.87;101740.03;5029373;28;20474;-21
2022/03/14 03:27:34;;;;;;;17.83;10.63;;;;;;;1.94;60.94;101735.13;5011776;28;20036;-20
2022/03/14 03:30:00;;;;;;;21.73;11.05;;;;;;;1.83;60.95;101740.38;5010962;28;20118;-21
2022/03/14 03:32:26;;;;;;;21.58;11.90;;;;;;;2.13;60.22;101742.38;5029323;28;20026;-21
2022/03/14 03:34:51;;;;;;;16.90;10.85;;;;;;;2.26;59.21;101754.56;5011096;28;20059;-21
2022/03/14 03:37:17;;;;;;;20.33;11.52;;;;;;;2.04;60.25;101750.16;5029631;28;20116;-21
2022/03/14 03:39:43;;;;;;;20.15;11.32;;;;;;;1.91;60.52;101755.56;5029223;28;20055;-21
2022/03/14 03:42:08;;;;;;;18.05;10.15;;;;;;;2.05;59.68;101754.50;5029049;28;20061;-21
2022/03/14 03:44:34;;;;;;;19.00;10.18;;;;;;;1.91;59.53;101761.66;5029145;28;20092;-21
2022/03/14 03:47:01;;;;;;;19.05;10.57;;;;;;;1.76;60.00;101773.41;5028835;28;20041;-21
2022/03/14 03:49:27;;;;;;;19.98;10.38;;;;;;;1.96;59.73;101771.81;5028822;28;20539;-22
2022/03/14 03:51:52;;;;;;;18.45;10.30;;;;;;;2.08;59.42;101773.50;5011413;28;20520;-21
2022/03/14 03:54:18;;;;;;;20.05;10.80;;;;;;;2.33;59.19;101769.75;5011088;28;20025;-22
2022/03/14 03:56:43;;;;;;;18.02;10.60;;;;;;;2.25;58.49;101766.91;5028892;28;20033;-21
2022/03/14 03:59:09;;;;;;;20.08;11.10;;;;;;;2.21;58.55;101765.47;5028894;28;20021;-21
2022/03/14 04:01:35;;;;;;;17.92;10.30;;;;;;;2.40;57.39;101760.38;5028633;28;20481;-21
2022/03/14 04:04:01;;;;;;;19.73;11.25;;;;;;;2.68;57.81;101781.88;5028558;28;20025;-20
2022/03/14 04:06:30;;;;;;;18.35;9.95;;;;;;;2.46;57.58;101774.03;5028922;28;20034;-20
2022/03/14 04:09:00;;;;;;;16.52;9.65;;;;;;;2.72;57.57;101796.47;5028518;28;20025;-21
2022/03/14 04:11:26;;;;;;;19.83;10.57;;;;;;;2.69;57.47;101791.44;5028703;28;20041;-20
2022/03/14 04:13:51;;;;;;;16.90;10.10;;;;;;;2.91;57.69;101792.31;5028887;28;20053;-21
2022/03/14 04:16:18;;;;;;;19.33;11.05;;;;;;;2.77;57.86;101788.19;5028469;28;20065;-21
2022/03/14 04:18:47;;;;;;;17.92;10.45;;;;;;;2.51;58.50;101770.03;5028730;28;20036;-21
2022/03/14 04:21:16;;;;;;;17.02;10.07;;;;;;;2.49;57.83;101794.84;5028205;28;20029;-20
2022/03/14 04:23:42;;;;;;;17.70;10.30;;;;;;;2.44;59.01;101789.94;5010712;28;20033;-21
2022/03/14 04:26:08;;;;;;;21.35;12.43;;;;;;;2.34;59.90;101781.94;5028228;28;20033;-20
2022/03/14 04:28:36;;;;;;;32.13;16.98;;;;;;;2.16;60.29;101783.41;5009721;28;20060;-20
2022/03/14 04:31:06;;;;;;;34.60;25.40;;;;;;;2.34;59.95;101803.00;5009521;28;20021;-20
2022/03/14 04:33:32;;;;;;;31.52;20.02;;;;;;;2.16;59.27;101772.88;5028057;28;20065;-20
2022/03/14 04:35:58;;;;;;;19.83;11.35;;;;;;;2.25;59.88;101811.66;5028098;28;20030;-21
2022/03/14 04:38:25;;;;;;;18.08;10.63;;;;;;;2.50;59.38;101807.06;5028244;28;20485;-21
2022/03/14 04:40:50;;;;;;;18.30;10.68;;;;;;;2.54;58.64;101803.22;5027011;28;20037;-21
2022/03/14 04:43:16;;;;;;;21.95;13.00;;;;;;;2.44;59.41;101818.09;5027956;28;20033;-20
2022/03/14 04:45:42;;;;;;;23.48;12.57;;;;;;;2.42;59.96;101820.84;5027800;28;20048;-21
2022/03/14 04:48:07;;;;;;;23.15;13.02;;;;;;;2.68;58.94;101831.91;5026753;28;20029;-20
2022/03/14 04:50:35;;;;;;;26.25;12.80;;;;;;;2.77;58.74;101818.00;5028100;28;20032;-21
2022/03/14 04:53:00;;;;;;;21.38;11.65;;;;;;;2.58;58.46;101820.44;5027664;28;20048;-20
2022/03/14 04:55:26;;;;;;;19.77;11.63;;;;;;;2.40;59.17;101823.59;5027876;28;20064;-21
2022/03/14 04:57:51;;;;;;;19.88;10.45;;;;;;;2.45;59.83;101835.53;5027646;28;20533;-20
2022/03/14 05:00:18;;;;;;;18.83;11.00;;;;;;;2.34;59.66;101834.59;5027595;28;20029;-21
2022/03/14 05:02:43;;;;;;;20.45;11.18;;;;;;;2.44;59.34;101854.97;5027846;28;20064;-20
2022/03/14 05:05:13;;;;;;;19.45;11.30;;;;;;;2.19;60.78;101833.19;5027271;28;20386;-20
2022/03/14 05:07:40;;;;;;;20.88;11.18;;;;;;;2.46;59.96;101838.06;5009912;28;20037;-21
2022/03/14 05:10:10;;;;;;;18.80;12.00;;;;;;;2.82;58.81;101865.06;5027601;28;20025;-21
2022/03/14 05:12:36;;;;;;;43.42;26.92;;;;;;;2.80;58.84;101869.63;5027811;28;20071;-21
2022/03/14 05:15:03;;;;;;;43.08;26.15;;;;;;;2.85;58.80;101861.34;5027783;28;20777;-20
2022/03/14 05:17:31;;;;;;;36.88;21.02;;;;;;;2.67;59.12;101846.03;5027892;28;20025;-21
2022/03/14 05:19:57;;;;;;;;;;;;;;;2.62;59.62;101869.28;5028047;28;20032;-21
2022/03/14 05:22:22;;;;;;;27.73;15.43;;;;;;;2.57;60.17;101845.94;5027525;28;19913;-20
2022/03/14 05:24:48;;;;;;;23.98;13.57;;;;;;;2.73;59.95;101863.97;5027088;28;20482;-21
2022/03/14 05:27:13;;;;;;;21.00;12.95;;;;;;;2.71;60.74;101873.81;5027360;28;20049;-21
2022/03/14 05:29:39;;;;;;;26.25;14.77;;;;;;;2.56;60.43;101860.06;5027406;28;20029;-21
2022/03/14 05:32:05;;;;;;;22.30;12.98;;;;;;;2.69;60.25;101857.28;5027700;28;20032;-21
2022/03/14 05:34:32;;;;;;;20.67;12.98;;;;;;;2.83;60.00;101873.81;5027761;28;20092;-21
2022/03/14 05:36:58;;;;;;;22.52;12.45;;;;;;;3.02;59.10;101881.88;5027196;28;20065;-21
2022/03/14 05:39:24;;;;;;;20.50;12.23;;;;;;;3.04;58.90;101872.03;5009510;28;20535;-20
2022/03/14 05:41:49;;;;;;;24.25;13.93;;;;;;;2.98;58.50;101880.44;5026957;28;20570;-20
2022/03/14 05:44:15;;;;;;;31.02;16.85;;;;;;;3.33;58.52;101896.03;5009642;28;20501;-20
2022/03/14 05:46:40;;;;;;;26.02;13.95;;;;;;;2.90;59.68;101889.00;5027108;28;20025;-20
2022/03/14 05:49:06;;;;;;;23.08;13.00;;;;;;;2.75;59.06;101877.88;5027037;28;20067;-21
2022/03/14 05:51:34;;;;;;;18.15;11.30;;;;;;;2.90;60.01;101894.25;5027515;28;20025;-21
2022/03/14 05:54:00;;;;;;;21.30;12.95;;;;;;;3.09;60.41;101892.78;5031249;28;20581;-21
2022/03/14 05:56:25;;;;;;;25.92;14.73;;;;;;;3.01;59.75;101896.84;5013205;28;20207;-21
2022/03/14 05:58:51;;;;;;;32.42;18.75;;;;;;;2.90;60.50;101893.41;5030916;28;20033;-21
2022/03/14 06:01:17;;;;;;;26.80;16.50;;;;;;;2.68;61.73;101889.88;5031209;28;20040;-20
2022/03/14 06:03:42;;;;;;;27.88;15.93;;;;;;;2.95;60.93;101891.25;5031040;28;20417;-20
2022/03/14 06:06:08;;;;;;;26.98;15.73;;;;;;;2.99;60.00;101887.41;5031017;28;20026;-22
2022/03/14 06:08:33;;;;;;;22.63;14.65;;;;;;;2.93;59.86;101898.44;5030895;28;20684;-21
2022/03/14 06:10:59;;;;;;;26.10;15.93;;;;;;;2.90;59.84;101902.16;5030545;28;20039;-21
2022/03/14 06:13:25;;;;;;;24.80;13.70;;;;;;;2.94;60.14;101900.97;5031092;28;20060;-20
2022/03/14 06:15:50;;;;;;;24.10;13.38;;;;;;;3.27;59.50;101907.09;5030763;28;20049;-20
2022/03/14 06:18:16;;;;;;;22.73;13.32;;;;;;;3.38;58.70;101901.75;5030850;28;20025;-20
2022/03/14 06:20:41;;;;;;;24.95;13.70;;;;;;;3.27;58.61;101890.41;5012757;28;20031;-21
2022/03/14 06:23:07;;;;;;;23.92;13.25;;;;;;;3.48;57.21;101925.56;5030470;28;20440;-21
2022/03/14 06:25:35;;;;;;;22.85;13.63;;;;;;;3.52;56.51;101932.28;5030525;28;20224;-21
2022/03/14 06:28:00;;;;;;;24.92;13.73;;;;;;;3.69;56.02;101912.41;5030482;28;20116;-20
2022/03/14 06:30:26;;;;;;;24.23;12.57;;;;;;;3.83;54.57;101930.53;5030363;28;20460;-20
2022/03/14 06:32:51;;;;;;;22.77;13.20;;;;;;;3.46;55.90;101927.50;5012537;28;20507;-20
2022/03/14 06:35:18;;;;;;;19.98;13.02;;;;;;;3.56;55.81;101928.41;5030435;28;20026;-20
2022/03/14 06:37:44;;;;;;;23.65;13.60;;;;;;;4.03;54.20;101939.44;5030407;28;20037;-20
2022/03/14 06:40:10;;;;;;;22.48;12.63;;;;;;;3.91;53.29;101940.47;5030158;28;20458;-21
2022/03/14 06:42:39;;;;;;;20.58;11.32;;;;;;;3.90;53.25;101956.44;5030399;28;20040;-21
2022/03/14 06:45:05;;;;;;;21.63;12.35;;;;;;;4.27;52.15;101948.03;5030220;28;20025;-20
2022/03/14 06:47:32;;;;;;;21.70;12.32;;;;;;;4.58;51.25;101962.09;5012556;28;20049;-21
2022/03/14 06:49:58;;;;;;;21.08;11.52;;;;;;;4.69;50.89;101964.63;5028719;28;20445;-20
2022/03/14 06:52:23;;;;;;;19.20;11.27;;;;;;;4.74;51.73;101973.00;5030055;28;20033;-20
2022/03/14 06:54:49;;;;;;;17.55;10.65;;;;;;;4.66;50.14;101948.19;5029882;28;20492;-20
2022/03/14 06:57:14;;;;;;;20.35;11.23;;;;;;;5.09;50.80;101961.13;5030088;28;20040;-21
2022/03/14 06:59:40;;;;;;;17.50;10.40;;;;;;;4.80;49.94;101967.19;5030341;28;20486;-21
2022/03/14 07:02:06;;;;;;;16.73;9.88;;;;;;;4.63;50.90;101971.28;5030112;28;20037;-21
2022/03/14 07:04:34;;;;;;;16.60;9.73;;;;;;;4.48;49.93;101956.75;5028962;28;20029;-21
2022/03/14 07:07:03;;;;;;;19.20;11.20;;;;;;;5.01;49.32;101974.19;5029845;28;20819;-21
2022/03/14 07:09:29;;;;;;;21.00;11.60;;;;;;;5.19;48.81;101977.84;5029641;28;20268;-21
2022/03/14 07:11:55;;;;;;;19.55;11.18;;;;;;;5.18;50.56;101981.47;5030199;28;20125;-21
2022/03/14 07:14:21;;;;;;;19.75;11.23;;;;;;;5.59;49.91;101984.84;5029954;28;20520;-21
2022/03/14 07:16:49;;;;;;;19.38;10.15;;;;;;;4.98;50.10;101977.09;5029777;28;20029;-21
2022/03/14 07:19:15;;;;;;;22.05;11.10;;;;;;;5.11;49.67;101975.06;5029761;28;20444;-20
2022/03/14 07:21:41;;;;;;;19.17;10.95;;;;;;;5.43;49.02;101979.25;5029448;28;20095;-22
2022/03/14 07:24:07;;;;;;;22.60;12.65;;;;;;;5.08;49.63;101982.41;5029610;28;20049;-21
2022/03/14 07:26:32;;;;;;;16.83;9.77;;;;;;;5.49;47.03;101986.66;5029573;28;20042;-20
2022/03/14 07:28:58;;;;;;;17.83;9.93;;;;;;;5.46;45.56;101992.22;5029400;28;20036;-20
2022/03/14 07:31:24;;;;;;;15.73;9.30;;;;;;;5.48;47.04;101994.75;5029391;28;20417;-21
2022/03/14 07:33:50;;;;;;;15.93;9.35;;;;;;;5.49;46.01;101989.28;5029622;28;20025;-21
2022/03/14 07:36:17;;;;;;;21.05;11.15;;;;;;;5.36;46.69;101979.00;5029472;28;20025;-21
2022/03/14 07:38:43;;;;;;;18.77;12.00;;;;;;;5.47;47.58;101996.53;5028887;28;20039;-20
2022/03/14 07:41:10;;;;;;;17.23;11.32;;;;;;;5.21;47.64;102002.38;5029019;28;20041;-21
2022/03/14 07:43:40;;;;;;;19.45;11.50;;;;;;;5.13;47.70;102004.84;5029442;28;20029;-20
2022/03/14 07:46:05;;;;;;;22.95;12.00;;;;;;;5.21;46.36;102006.78;5029209;28;20037;-20
2022/03/14 07:48:31;;;;;;;16.80;9.85;;;;;;;5.10;46.06;101994.53;5029362;28;20025;-21
2022/03/14 07:50:57;;;;;;;39.33;17.38;;;;;;;5.67;46.63;101999.22;5028730;28;20037;-21
2022/03/14 07:53:22;;;;;;;16.92;10.32;;;;;;;5.66;46.65;102000.16;5029269;28;20018;-21
2022/03/14 07:55:48;;;;;;;19.05;10.70;;;;;;;5.97;46.33;102004.38;5011125;28;20036;-20
2022/03/14 07:58:14;;;;;;;19.33;10.23;;;;;;;5.63;43.46;101991.53;5027940;28;20551;-21
2022/03/14 08:00:39;;;;;;;20.27;10.90;;;;;;;5.98;43.71;102000.75;5028744;28;20026;-20
2022/03/14 08:03:05;;;;;;;21.77;12.23;;;;;;;6.07;44.78;101999.09;5028692;28;20022;-20
2022/03/14 08:05:30;;;;;;;16.27;10.52;;;;;;;6.01;45.49;101983.75;5028558;28;20037;-21
2022/03/14 08:07:56;;;;;;;16.15;9.75;;;;;;;6.39;45.06;101997.88;5028841;28;20032;-22
2022/03/14 08:10:23;;;;;;;15.35;9.88;;;;;;;6.52;43.16;101990.47;5028805;28;20089;-20
2022/03/14 08:12:56;;;;;;;18.08;9.70;;;;;;;6.58;43.90;101971.31;5028303;28;20128;-20
2022/03/14 08:15:23;;;;;;;14.20;8.48;;;;;;;6.92;40.74;102001.72;5028473;28;20065;-21
2022/03/14 08:17:50;;;;;;;17.13;8.55;;;;;;;6.87;41.85;101990.75;5028549;28;20080;-21
2022/03/14 08:20:16;;;;;;;13.85;8.23;;;;;;;6.94;40.50;102002.41;5028210;28;20412;-21
2022/03/14 08:22:41;;;;;;;17.10;10.07;;;;;;;6.90;41.93;101990.44;5028487;28;20033;-21
2022/03/14 08:25:07;;;;;;;13.27;7.43;;;;;;;6.96;40.21;101995.16;5028159;28;20079;-20
2022/03/14 08:27:33;;;;;;;15.95;8.32;;;;;;;7.23;41.06;101984.53;5028312;28;20480;-21
2022/03/14 08:29:58;;;;;;;15.90;8.73;;;;;;;7.43;41.18;101997.66;5028442;28;20029;-21
2022/03/14 08:32:24;;;;;;;19.38;8.48;;;;;;;7.30;41.70;101997.19;5028244;28;20414;-21
2022/03/14 08:34:52;;;;;;;14.05;7.72;;;;;;;7.31;39.56;101999.69;5027976;28;20033;-20
2022/03/14 08:37:18;;;;;;;;;;;;;;;7.34;38.26;101999.41;5028844;28;20033;-21
2022/03/14 08:39:45;;;;;;;18.90;8.25;;;;;;;7.17;38.08;101976.31;5028276;28;19919;-21
2022/03/14 08:42:11;;;;;;;17.70;9.45;;;;;;;7.76;39.10;101996.13;5028082;28;20025;-21
2022/03/14 08:44:36;;;;;;;14.43;8.85;;;;;;;7.64;41.20;101990.25;5028188;28;20530;-21
2022/03/14 08:47:03;;;;;;;19.50;9.80;;;;;;;7.36;40.01;101986.00;5028051;28;20378;-21
2022/03/14 08:49:28;;;;;;;12.30;7.25;;;;;;;7.23;40.70;101986.31;5028377;28;20036;-20
2022/03/14 08:51:54;;;;;;;13.15;7.60;;;;;;;7.74;41.01;101984.00;5027850;28;20033;-22
2022/03/14 08:54:19;;;;;;;15.48;9.00;;;;;;;7.13;38.67;101981.09;5027976;28;20409;-20
2022/03/14 08:56:45;;;;;;;13.68;7.00;;;;;;;6.77;39.24;101974.88;5027665;28;20030;-21
2022/03/14 08:59:12;;;;;;;12.82;7.82;;;;;;;7.32;38.81;101980.13;5027783;28;20037;-21
2022/03/14 09:01:38;;;;;;;12.20;7.23;;;;;;;7.63;39.10;101969.97;5027923;28;20022;-21
2022/03/14 09:04:05;;;;;;;12.18;7.43;;;;;;;7.85;39.97;101991.75;5009685;28;20065;-20
2022/03/14 09:06:35;;;;;;;15.02;7.75;;;;;;;7.92;39.30;101981.31;5027814;28;20095;-21
2022/03/14 09:09:01;;;;;;;12.45;7.78;;;;;;;7.84;36.97;101980.25;5027437;28;20033;-20
2022/03/14 09:11:26;;;;;;;14.07;7.75;;;;;;;7.70;37.55;101982.63;5027620;28;20036;-21
2022/03/14 09:13:52;;;;;;;12.07;7.05;;;;;;;7.93;39.05;101975.88;5027603;28;20111;-19
2022/03/14 09:16:20;;;;;;;11.85;7.50;;;;;;;8.09;37.33;101977.81;5027484;28;20017;-21
2022/03/14 09:18:46;;;;;;;12.75;7.80;;;;;;;8.63;36.74;101991.78;5027972;28;20409;-20
2022/03/14 09:21:14;;;;;;;12.75;7.50;;;;;;;8.32;34.87;101994.06;5027253;28;20475;-20
2022/03/14 09:23:41;;;;;;;12.55;7.93;;;;;;;8.41;36.40;101977.19;5027618;28;20029;-22
2022/03/14 09:26:07;;;;;;;12.30;7.40;;;;;;;8.84;36.82;101978.06;5027261;28;20037;-21
2022/03/14 09:28:32;;;;;;;12.50;7.85;;;;;;;8.94;35.54;101993.06;5027531;28;20628;-21
2022/03/14 09:30:58;;;;;;;11.23;7.15;;;;;;;9.29;33.37;101996.50;5027048;28;20037;-21
2022/03/14 09:33:24;;;;;;;14.30;7.72;;;;;;;9.83;32.81;101979.09;5009773;28;20025;-20
2022/03/14 09:35:51;;;;;;;12.88;8.18;;;;;;;9.69;35.74;101997.59;5027416;28;20030;-20
2022/03/14 09:38:17;;;;;;;12.43;7.63;;;;;;;9.23;35.43;101977.53;5027338;28;20026;-20
2022/03/14 09:40:46;;;;;;;15.27;8.43;;;;;;;9.79;32.82;101998.25;5027439;28;20061;-20
2022/03/14 09:43:15;;;;;;;14.05;8.23;;;;;;;10.36;31.31;101994.72;5027341;28;20034;-20
2022/03/14 09:45:46;;;;;;;17.50;9.40;;;;;;;9.83;34.53;101995.09;5027087;28;20038;-20
2022/03/14 09:48:14;;;;;;;18.70;7.22;;;;;;;9.35;36.55;102001.19;5027490;28;20398;-21
2022/03/14 09:50:41;;;;;;;35.28;16.45;;;;;;;9.90;34.93;101997.91;5027448;28;20051;-20
2022/03/14 09:53:09;;;;;;;20.17;11.05;;;;;;;10.40;32.73;102015.56;5027135;28;20134;-20
2022/03/14 09:55:40;;;;;;;17.73;8.70;;;;;;;10.45;32.65;102005.19;5027491;28;20044;-20
2022/03/14 09:58:09;;;;;;;11.13;6.95;;;;;;;10.18;32.06;102003.72;5027073;28;20025;-20
2022/03/14 10:00:34;;;;;;;17.02;10.50;;;;;;;10.18;33.39;101994.91;5027057;28;20037;-22
2022/03/14 10:03:00;;;;;;;12.90;8.15;;;;;;;10.04;33.08;101989.22;5026948;28;20028;-20
2022/03/14 10:05:25;;;;;;;17.52;15.10;;;;;;;9.54;34.38;101995.56;5027075;28;20425;-20
2022/03/14 10:07:51;;;;;;;17.52;10.07;;;;;;;8.90;35.85;101986.41;5026976;28;20060;-21
2022/03/14 10:10:16;;;;;;;10.57;6.88;;;;;;;8.65;34.64;102004.94;5009463;28;20057;-20
2022/03/14 10:12:43;;;;;;;23.92;16.50;;;;;;;8.64;35.09;101993.47;5026692;28;20485;-22
2022/03/14 10:15:10;;;;;;;16.25;10.93;;;;;;;9.29;34.45;101980.53;5027068;28;20037;-22
2022/03/14 10:17:36;;;;;;;23.00;12.25;;;;;;;10.30;33.75;101993.56;5027183;28;20030;-21
2022/03/14 10:20:06;;;;;;;19.60;14.15;;;;;;;9.99;32.94;101994.25;5025865;28;20037;-20
2022/03/14 10:22:39;;;;;;;16.20;10.18;;;;;;;9.63;32.10;101999.91;5025759;28;20103;-20
2022/03/14 10:25:11;;;;;;;29.63;13.23;;;;;;;9.30;32.77;101995.53;5026617;28;20512;-21
2022/03/14 10:27:38;;;;;;;16.02;9.35;;;;;;;9.53;33.06;101972.59;5027332;28;20036;-20
2022/03/14 10:30:06;;;;;;;13.60;7.22;;;;;;;10.13;32.23;101992.72;5009491;28;20024;-20
2022/03/14 10:32:33;;;;;;;;;;;;;;;10.47;33.61;102007.69;5027407;28;20065;-22
2022/03/14 10:35:05;;;;;;;11.85;7.18;;;;;;;9.83;32.80;101999.59;5008895;28;19909;-21
2022/03/14 10:37:32;;;;;;;16.27;8.20;;;;;;;8.80;35.13;102000.66;5008953;28;20112;-22
2022/03/14 10:39:59;;;;;;;12.52;7.57;;;;;;;9.54;33.00;101995.56;5028834;28;20033;-20
2022/03/14 10:42:25;;;;;;;26.48;15.40;;;;;;;9.45;33.32;101975.22;5030670;28;20493;-20
2022/03/14 10:44:52;;;;;;;14.70;9.55;;;;;;;9.22;33.76;101991.00;5030152;28;20057;-20
2022/03/14 10:47:19;;;;;;;11.93;6.95;;;;;;;9.29;33.63;101978.69;5030318;28;20032;-20
2022/03/14 10:49:45;;;;;;;17.55;9.43;;;;;;;9.45;33.75;101980.56;5030241;28;20037;-20
2022/03/14 10:52:13;;;;;;;13.13;7.82;;;;;;;9.20;34.17;101966.38;5030081;28;20029;-20
2022/03/14 10:54:40;;;;;;;58.83;27.58;;;;;;;9.75;34.10;101988.94;5029864;28;20037;-20
2022/03/14 10:57:06;;;;;;;86.97;38.17;;;;;;;9.82;33.73;101990.75;5012147;28;20033;-20
2022/03/14 10:59:43;;;;;;;12.40;6.80;;;;;;;10.04;32.41;101970.56;5030194;28;20030;-20
2022/03/14 11:02:20;;;;;;;12.52;7.05;;;;;;;9.92;33.55;101990.56;5030063;28;20052;-20
2022/03/14 11:04:56;;;;;;;12.57;7.10;;;;;;;10.38;33.43;101995.38;5029809;28;20037;-20
2022/03/14 11:07:25;;;;;;;11.50;7.10;;;;;;;9.75;33.09;101991.59;5029987;28;20032;-20
2022/03/14 11:09:53;;;;;;;10.68;6.55;;;;;;;9.29;32.71;101981.34;5012040;28;20600;-22
2022/03/14 11:12:23;;;;;;;10.55;6.13;;;;;;;9.19;35.30;101970.88;5011645;28;20034;-21
2022/03/14 11:14:56;;;;;;;12.85;7.43;;;;;;;9.39;34.74;101950.09;5029362;28;20500;-20
2022/03/14 11:17:26;;;;;;;10.50;6.28;;;;;;;9.69;34.25;101965.63;5029699;28;20029;-20